createdAt,value
2023-03-31T00:01:11.468Z,11.00
2023-03-31T00:03:43.970Z,11.00
2023-03-31T00:06:18.361Z,11.00
2023-03-31T00:08:51.562Z,10.90
2023-03-31T00:11:21.556Z,11.00
2023-03-31T00:13:50.929Z,10.90
2023-03-31T00:16:18.187Z,10.90
2023-03-31T00:18:47.659Z,10.90
2023-03-31T00:21:25.720Z,10.90
2023-03-31T00:24:00.299Z,10.90
2023-03-31T00:26:28.162Z,10.90
2023-03-31T00:28:56.511Z,10.90
2023-03-31T00:31:24.741Z,10.90
2023-03-31T00:33:51.966Z,10.80
2023-03-31T00:36:27.341Z,10.80
2023-03-31T00:39:00.365Z,10.70
2023-03-31T00:41:29.377Z,10.70
2023-03-31T00:44:06.640Z,10.60
2023-03-31T00:46:54.213Z,10.60
2023-03-31T00:49:51.818Z,10.50
2023-03-31T00:52:28.415Z,10.50
2023-03-31T00:55:02.206Z,10.40
2023-03-31T00:57:32.591Z,10.40
2023-03-31T01:00:14.279Z,10.40
2023-03-31T01:02:52.592Z,10.30
2023-03-31T01:05:32.133Z,10.30
2023-03-31T01:08:02.250Z,10.30
2023-03-31T01:10:33.906Z,10.20
2023-03-31T01:13:01.338Z,10.20
2023-03-31T01:15:30.748Z,10.20
2023-03-31T01:17:58.288Z,10.20
2023-03-31T01:21:09.243Z,10.10
2023-03-31T01:24:06.811Z,10.10
2023-03-31T01:27:22.078Z,10.10
2023-03-31T01:30:36.979Z,10.10
2023-03-31T01:33:37.655Z,10.10
2023-03-31T01:36:19.714Z,10.00
2023-03-31T01:39:26.578Z,10.00
2023-03-31T01:42:21.764Z,10.00
2023-03-31T01:45:26.458Z,9.90
2023-03-31T01:48:09.311Z,9.90
2023-03-31T01:50:47.336Z,9.80
2023-03-31T01:53:33.416Z,9.90
2023-03-31T01:56:16.172Z,9.90
2023-03-31T01:59:10.534Z,9.80
2023-03-31T02:01:44.411Z,9.90
2023-03-31T02:04:37.629Z,9.80
2023-03-31T02:07:22.152Z,9.80
2023-03-31T02:09:58.535Z,9.80
2023-03-31T02:12:30.316Z,9.70
2023-03-31T02:14:58.978Z,9.70
2023-03-31T02:17:32.801Z,9.70
2023-03-31T02:20:06.511Z,9.60
2023-03-31T02:22:37.912Z,9.60
2023-03-31T02:25:08.800Z,9.60
2023-03-31T02:27:40.393Z,9.60
2023-03-31T02:30:09.516Z,9.60
2023-03-31T02:32:43.540Z,9.60
2023-03-31T02:35:16.524Z,9.60
2023-03-31T02:37:45.538Z,9.60
2023-03-31T02:40:21.838Z,9.60
2023-03-31T02:42:49.917Z,9.60
2023-03-31T02:45:48.200Z,9.60
2023-03-31T02:48:35.884Z,9.60
2023-03-31T02:51:09.286Z,9.60
2023-03-31T02:53:53.489Z,9.60
2023-03-31T02:56:42.296Z,9.60
2023-03-31T02:59:28.600Z,9.60
2023-03-31T03:02:25.425Z,9.60
2023-03-31T03:05:23.956Z,9.60
2023-03-31T03:08:50.355Z,9.70
2023-03-31T03:11:34.340Z,9.70
2023-03-31T03:14:14.590Z,9.70
2023-03-31T03:16:57.807Z,9.60
2023-03-31T03:19:24.953Z,9.60
2023-03-31T03:21:52.134Z,9.60
2023-03-31T03:24:19.563Z,9.70
2023-03-31T03:26:46.873Z,9.70
2023-03-31T03:29:14.727Z,9.70
2023-03-31T03:31:44.840Z,9.70
2023-03-31T03:34:11.994Z,9.70
2023-03-31T03:36:39.756Z,9.70
2023-03-31T03:39:08.150Z,9.60
2023-03-31T03:41:35.975Z,9.70
2023-03-31T03:44:03.232Z,9.70
2023-03-31T03:46:30.503Z,9.70
2023-03-31T03:48:57.644Z,9.70
2023-03-31T03:51:24.865Z,9.70
2023-03-31T03:53:51.939Z,9.70
2023-03-31T03:56:19.001Z,9.70
2023-03-31T03:58:46.157Z,9.70
2023-03-31T04:01:14.230Z,9.70
2023-03-31T04:03:41.337Z,9.70
2023-03-31T04:06:08.759Z,9.70
2023-03-31T04:08:36.974Z,9.70
2023-03-31T04:11:06.058Z,9.60
2023-03-31T04:13:33.124Z,9.60
2023-03-31T04:16:00.319Z,9.60
2023-03-31T04:18:27.392Z,9.60
2023-03-31T04:21:04.331Z,9.60
2023-03-31T04:23:42.751Z,9.60
2023-03-31T04:26:10.549Z,9.60
2023-03-31T04:28:38.739Z,9.60
2023-03-31T04:31:09.527Z,9.60
2023-03-31T04:33:38.824Z,9.60
2023-03-31T04:36:17.784Z,9.60
2023-03-31T04:38:56.116Z,9.60
2023-03-31T04:41:25.129Z,9.60
2023-03-31T04:43:52.288Z,9.60
2023-03-31T04:46:19.828Z,9.60
2023-03-31T04:48:46.897Z,9.60
2023-03-31T04:51:15.618Z,9.70
2023-03-31T04:53:42.924Z,9.70
2023-03-31T04:56:10.099Z,9.70
2023-03-31T04:58:37.233Z,9.70
2023-03-31T05:01:08.598Z,9.70
2023-03-31T05:03:36.186Z,9.70
2023-03-31T05:06:03.869Z,9.70
2023-03-31T05:08:31.820Z,9.70
2023-03-31T05:10:58.939Z,9.70
2023-03-31T05:13:26.134Z,9.70
2023-03-31T05:15:53.248Z,9.70
2023-03-31T05:18:20.390Z,9.80
2023-03-31T05:20:47.540Z,9.80
2023-03-31T05:23:15.031Z,9.80
2023-03-31T05:25:42.612Z,9.80
2023-03-31T05:28:10.246Z,9.80
2023-03-31T05:30:37.474Z,9.80
2023-03-31T05:33:04.667Z,9.80
2023-03-31T05:35:31.820Z,9.80
2023-03-31T05:37:58.909Z,9.80
2023-03-31T05:40:26.125Z,9.80
2023-03-31T05:42:53.278Z,9.80
2023-03-31T05:45:20.473Z,9.80
2023-03-31T05:47:47.624Z,9.80
2023-03-31T05:50:15.101Z,9.80
2023-03-31T05:52:42.227Z,9.80
2023-03-31T05:55:10.115Z,9.90
2023-03-31T05:57:37.193Z,9.90
2023-03-31T06:00:06.762Z,9.90
2023-03-31T06:02:34.196Z,9.90
2023-03-31T06:05:01.307Z,9.90
2023-03-31T06:07:28.460Z,9.90
2023-03-31T06:09:55.650Z,9.90
2023-03-31T06:12:22.869Z,9.90
2023-03-31T06:14:49.934Z,10.00
2023-03-31T06:17:16.968Z,10.00
2023-03-31T06:19:44.145Z,10.00
2023-03-31T06:22:11.245Z,10.00
2023-03-31T06:24:38.307Z,10.10
2023-03-31T06:27:07.237Z,10.10
2023-03-31T06:29:34.304Z,10.20
2023-03-31T06:32:01.512Z,10.20
2023-03-31T06:34:28.818Z,10.30
2023-03-31T06:36:56.083Z,10.30
2023-03-31T06:39:23.863Z,10.40
2023-03-31T06:41:52.310Z,10.40
2023-03-31T06:44:26.681Z,10.40
2023-03-31T06:46:53.781Z,10.40
2023-03-31T06:49:21.093Z,10.50
2023-03-31T06:51:48.148Z,10.50
2023-03-31T06:54:15.236Z,10.60
2023-03-31T06:56:42.312Z,10.50
2023-03-31T06:59:09.490Z,10.50
2023-03-31T07:01:37.524Z,10.50
2023-03-31T07:04:05.124Z,10.60
2023-03-31T07:06:32.328Z,10.60
2023-03-31T07:08:59.498Z,10.60
2023-03-31T07:11:26.678Z,10.60
2023-03-31T07:13:53.740Z,10.60
2023-03-31T07:16:21.033Z,10.60
2023-03-31T07:18:48.284Z,10.70
2023-03-31T07:21:15.623Z,10.70
2023-03-31T07:23:42.810Z,10.70
2023-03-31T07:26:11.465Z,10.80
2023-03-31T07:28:38.814Z,10.90
2023-03-31T07:31:12.890Z,10.90
2023-03-31T07:33:40.956Z,10.90
2023-03-31T07:36:13.219Z,10.90
2023-03-31T07:38:46.954Z,10.80
2023-03-31T07:41:18.467Z,10.70
2023-03-31T07:43:46.965Z,10.60
2023-03-31T07:46:20.733Z,10.60
2023-03-31T07:48:48.849Z,10.70
2023-03-31T07:51:19.355Z,10.70
2023-03-31T07:53:49.321Z,10.70
2023-03-31T07:56:19.442Z,10.70
2023-03-31T07:58:47.342Z,10.70
2023-03-31T08:01:17.200Z,10.70
2023-03-31T08:03:46.491Z,10.60
2023-03-31T08:06:19.923Z,10.70
2023-03-31T08:08:47.424Z,10.80
2023-03-31T08:11:14.631Z,10.90
2023-03-31T08:13:42.014Z,11.00
2023-03-31T08:16:09.660Z,11.00
2023-03-31T08:18:40.873Z,11.00
2023-03-31T08:21:10.013Z,11.00
2023-03-31T08:23:37.590Z,11.00
2023-03-31T08:26:10.786Z,11.00
2023-03-31T08:28:38.189Z,11.00
2023-03-31T08:31:14.662Z,11.00
2023-03-31T08:33:41.964Z,10.90
2023-03-31T08:36:13.238Z,11.00
2023-03-31T08:38:42.823Z,10.90
2023-03-31T08:41:42.432Z,10.80
2023-03-31T08:44:22.542Z,10.80
2023-03-31T08:46:53.755Z,10.90
2023-03-31T08:49:24.646Z,10.90
2023-03-31T08:52:06.929Z,10.90
2023-03-31T08:54:46.580Z,10.90
2023-03-31T08:57:26.221Z,10.80
2023-03-31T08:59:58.356Z,10.80
2023-03-31T09:02:52.884Z,10.90
2023-03-31T09:05:20.033Z,11.00
2023-03-31T09:08:01.301Z,10.90
2023-03-31T09:10:59.524Z,11.00
2023-03-31T09:13:55.837Z,10.90
2023-03-31T09:16:58.302Z,11.10
2023-03-31T09:19:58.981Z,11.10
2023-03-31T09:22:32.574Z,11.20
2023-03-31T09:25:06.096Z,11.40
2023-03-31T09:27:37.491Z,11.60
2023-03-31T09:30:16.483Z,11.70
2023-03-31T09:32:44.045Z,11.80
2023-03-31T09:35:27.641Z,11.90
2023-03-31T09:37:54.766Z,11.90
2023-03-31T09:40:28.219Z,11.80
2023-03-31T09:43:01.920Z,11.70
2023-03-31T09:45:30.845Z,11.60
2023-03-31T09:48:01.829Z,11.60
2023-03-31T09:50:31.769Z,11.60
2023-03-31T09:53:00.831Z,11.50
2023-03-31T09:55:53.745Z,11.40
2023-03-31T09:58:24.823Z,11.30
2023-03-31T10:01:06.550Z,11.30
2023-03-31T10:03:37.056Z,11.30
2023-03-31T10:06:14.921Z,11.30
2023-03-31T10:08:48.239Z,11.30
2023-03-31T10:11:16.228Z,11.50
2023-03-31T10:13:59.731Z,11.70
2023-03-31T10:16:29.898Z,11.70
2023-03-31T10:19:21.884Z,11.70
2023-03-31T10:22:04.941Z,11.70
2023-03-31T10:24:46.259Z,11.80
2023-03-31T10:27:33.042Z,11.80
2023-03-31T10:30:03.720Z,11.90
2023-03-31T10:32:40.960Z,11.90
2023-03-31T10:35:27.002Z,11.90
2023-03-31T10:38:06.602Z,11.90
2023-03-31T10:40:35.305Z,11.90
2023-03-31T10:43:43.312Z,11.80
2023-03-31T10:46:12.764Z,11.80
2023-03-31T10:48:42.265Z,11.70
2023-03-31T10:51:22.406Z,11.50
2023-03-31T10:53:55.798Z,11.40
2023-03-31T10:57:03.779Z,11.40
2023-03-31T10:59:48.852Z,11.40
2023-03-31T11:02:57.557Z,11.30
2023-03-31T11:05:42.543Z,11.30
2023-03-31T11:08:51.435Z,11.30
2023-03-31T11:12:19.562Z,11.20
2023-03-31T11:15:21.588Z,11.20
2023-03-31T11:18:03.553Z,11.30
2023-03-31T11:21:06.643Z,11.50
2023-03-31T11:24:09.560Z,11.60
2023-03-31T11:26:59.105Z,11.60
2023-03-31T11:29:31.123Z,11.70
2023-03-31T11:32:31.320Z,11.80
2023-03-31T11:35:35.916Z,11.80
2023-03-31T11:39:03.720Z,11.90
2023-03-31T11:41:39.986Z,11.90
2023-03-31T11:44:13.593Z,11.90
2023-03-31T11:46:54.667Z,11.90
2023-03-31T11:49:40.206Z,12.00
2023-03-31T11:52:18.512Z,12.00
2023-03-31T11:55:16.630Z,12.00
2023-03-31T11:58:10.358Z,12.00
2023-03-31T12:01:03.391Z,12.00
2023-03-31T12:03:44.093Z,12.00
2023-03-31T12:06:19.998Z,12.00
2023-03-31T12:09:12.043Z,11.90
2023-03-31T12:12:02.437Z,11.80
2023-03-31T12:14:48.109Z,11.60
2023-03-31T12:17:25.696Z,11.40
2023-03-31T12:20:00.505Z,11.30
2023-03-31T12:22:39.164Z,11.20
2023-03-31T12:25:13.107Z,11.30
2023-03-31T12:27:43.097Z,11.30
2023-03-31T12:30:43.124Z,11.30
2023-03-31T12:33:21.468Z,11.30
2023-03-31T12:36:09.636Z,11.30
2023-03-31T12:39:14.953Z,11.50
2023-03-31T12:42:44.555Z,11.60
2023-03-31T12:45:31.815Z,11.60
2023-03-31T12:48:26.193Z,11.80
2023-03-31T12:51:14.862Z,11.80
2023-03-31T12:54:40.096Z,11.70
2023-03-31T12:57:10.221Z,11.70
2023-03-31T12:59:43.630Z,11.80
2023-03-31T13:02:23.841Z,11.90
2023-03-31T13:04:52.005Z,11.80
2023-03-31T13:07:29.511Z,11.80
2023-03-31T13:10:17.076Z,11.90
2023-03-31T13:13:04.443Z,11.80
2023-03-31T13:15:33.495Z,11.80
2023-03-31T13:18:04.139Z,11.80
2023-03-31T13:20:40.926Z,11.80
2023-03-31T13:23:28.913Z,11.70
2023-03-31T13:25:57.399Z,11.60
2023-03-31T13:28:28.307Z,11.60
2023-03-31T13:31:08.024Z,11.60
2023-03-31T13:33:58.167Z,11.50
2023-03-31T13:36:34.463Z,11.40
2023-03-31T13:39:48.010Z,11.40
2023-03-31T13:42:36.392Z,11.40
2023-03-31T13:45:32.726Z,11.60
2023-03-31T13:48:14.591Z,11.70
2023-03-31T13:51:13.961Z,11.80
2023-03-31T13:54:02.316Z,11.60
2023-03-31T13:56:48.184Z,11.40
2023-03-31T13:59:55.803Z,11.40
2023-03-31T14:02:57.004Z,11.30
2023-03-31T14:05:46.317Z,11.20
2023-03-31T14:08:52.536Z,11.20
2023-03-31T14:11:31.723Z,11.20
2023-03-31T14:14:11.418Z,11.20
2023-03-31T14:16:46.049Z,11.20
2023-03-31T14:20:13.345Z,11.20
2023-03-31T14:23:08.574Z,11.30
2023-03-31T14:25:50.781Z,11.30
2023-03-31T14:28:37.334Z,11.20
2023-03-31T14:31:47.001Z,11.50
2023-03-31T14:35:01.705Z,11.70
2023-03-31T14:37:29.520Z,11.70
2023-03-31T14:39:58.970Z,11.80
2023-03-31T14:42:50.080Z,11.80
2023-03-31T14:45:25.283Z,11.70
2023-03-31T14:47:58.539Z,11.50
2023-03-31T14:50:35.616Z,11.50
2023-03-31T14:53:04.766Z,11.40
2023-03-31T14:55:49.768Z,11.20
2023-03-31T14:58:55.996Z,11.10
2023-03-31T15:01:34.543Z,11.00
2023-03-31T15:04:13.234Z,11.00
2023-03-31T15:06:48.697Z,11.00
2023-03-31T15:09:36.735Z,11.20
2023-03-31T15:12:11.023Z,11.20
2023-03-31T15:14:46.956Z,11.30
2023-03-31T15:17:26.497Z,11.20
2023-03-31T15:20:00.384Z,11.00
2023-03-31T15:22:29.827Z,11.00
2023-03-31T15:24:58.348Z,11.20
2023-03-31T15:27:41.540Z,11.20
2023-03-31T15:30:16.184Z,11.10
2023-03-31T15:32:44.582Z,11.20
2023-03-31T15:35:27.534Z,11.30
2023-03-31T15:37:57.645Z,11.30
2023-03-31T15:40:40.006Z,11.10
2023-03-31T15:43:25.965Z,11.00
2023-03-31T15:45:57.338Z,11.00
2023-03-31T15:48:36.717Z,11.00
2023-03-31T15:51:14.559Z,11.00
2023-03-31T15:53:46.732Z,11.00
2023-03-31T15:56:46.283Z,11.00
2023-03-31T16:02:19.835Z,10.90
2023-03-31T16:04:56.482Z,10.90
2023-03-31T16:07:27.647Z,10.90
2023-03-31T16:10:09.293Z,10.90
2023-03-31T16:12:56.788Z,10.80
2023-03-31T16:13:34.492Z,11.00
2023-03-31T16:15:47.009Z,10.80
2023-03-31T16:18:32.024Z,10.80
2023-03-31T16:21:04.654Z,10.80
2023-03-31T16:23:38.143Z,10.70
2023-03-31T16:26:07.286Z,10.70
2023-03-31T16:28:37.963Z,10.70
2023-03-31T16:31:35.239Z,10.60
2023-03-31T16:34:06.539Z,10.50
2023-03-31T16:36:35.417Z,10.50
2023-03-31T16:39:05.408Z,10.60
2023-03-31T16:41:36.349Z,10.60
2023-03-31T16:44:06.550Z,10.50
2023-03-31T16:46:35.158Z,10.40
2023-03-31T16:49:03.498Z,10.40
2023-03-31T16:51:34.770Z,10.30
2023-03-31T16:54:02.978Z,10.30
2023-03-31T16:56:33.460Z,10.10
2023-03-31T16:59:01.727Z,10.00
2023-03-31T17:01:29.403Z,9.90
2023-03-31T17:03:57.681Z,9.80
2023-03-31T17:06:25.684Z,9.80
2023-03-31T17:08:53.204Z,9.70
2023-03-31T17:11:21.675Z,9.70
2023-03-31T17:13:50.175Z,9.70
2023-03-31T17:16:24.311Z,9.60
2023-03-31T17:18:56.995Z,9.70
2023-03-31T17:21:24.994Z,9.60
2023-03-31T17:23:53.561Z,9.60
2023-03-31T17:26:22.632Z,9.60
2023-03-31T17:28:50.928Z,9.50
2023-03-31T17:31:22.024Z,9.50
2023-03-31T17:33:49.979Z,9.50
2023-03-31T17:36:18.405Z,9.50
2023-03-31T17:38:46.456Z,9.50
2023-03-31T17:41:15.739Z,9.50
2023-03-31T17:43:49.146Z,9.50
2023-03-31T17:46:17.826Z,9.40
2023-03-31T17:48:45.763Z,9.40
2023-03-31T17:51:17.416Z,9.40
2023-03-31T17:53:47.250Z,9.30
2023-03-31T17:56:16.788Z,9.30
2023-03-31T17:58:45.763Z,9.40
2023-03-31T18:01:14.525Z,9.40
2023-03-31T18:03:42.362Z,9.40
2023-03-31T18:06:12.915Z,9.40
2023-03-31T18:08:41.635Z,9.40
2023-03-31T18:11:11.541Z,9.40
2023-03-31T18:13:39.122Z,9.30
2023-03-31T18:16:13.026Z,9.30
2023-03-31T18:18:41.469Z,9.30
2023-03-31T18:21:13.666Z,9.30
2023-03-31T18:23:41.198Z,9.20
2023-03-31T18:26:11.338Z,9.20
2023-03-31T18:28:40.648Z,9.20
2023-03-31T18:31:08.800Z,9.20
2023-03-31T18:33:36.652Z,9.20
2023-03-31T18:36:04.236Z,9.30
2023-03-31T18:38:31.563Z,9.30
2023-03-31T18:40:58.689Z,9.30
2023-03-31T18:43:26.471Z,9.30
2023-03-31T18:45:56.478Z,9.30
2023-03-31T18:48:24.060Z,9.30
2023-03-31T18:50:53.033Z,9.30
2023-03-31T18:53:22.548Z,9.30
2023-03-31T18:55:56.872Z,9.30
2023-03-31T18:58:31.624Z,9.30
2023-03-31T19:01:01.353Z,9.30
2023-03-31T19:03:29.008Z,9.30
2023-03-31T19:06:11.997Z,9.30
2023-03-31T19:08:39.781Z,9.30
2023-03-31T19:11:13.518Z,9.30
2023-03-31T19:13:42.882Z,9.30
2023-03-31T19:16:11.933Z,9.30
2023-03-31T19:18:39.764Z,9.30
2023-03-31T19:21:07.169Z,9.20
2023-03-31T19:23:34.832Z,9.20
2023-03-31T19:26:03.089Z,9.20
2023-03-31T19:28:30.631Z,9.20
2023-03-31T19:30:58.931Z,9.20
2023-03-31T19:33:26.949Z,9.20
2023-03-31T19:35:54.754Z,9.10
2023-03-31T19:38:22.169Z,9.10
2023-03-31T19:40:50.035Z,9.20
2023-03-31T19:43:23.234Z,9.10
2023-03-31T19:45:57.655Z,9.10
2023-03-31T19:48:26.551Z,9.10
2023-03-31T19:50:57.092Z,9.10
2023-03-31T19:53:24.290Z,9.10
2023-03-31T19:56:13.789Z,9.10
2023-03-31T19:58:41.425Z,9.10
2023-03-31T20:01:36.467Z,9.10
2023-03-31T20:04:04.278Z,9.00
2023-03-31T20:06:34.544Z,9.00
2023-03-31T20:09:06.291Z,9.10
2023-03-31T20:11:33.614Z,9.10
2023-03-31T20:14:01.833Z,9.10
2023-03-31T20:16:30.939Z,9.10
2023-03-31T20:19:05.221Z,9.10
2023-03-31T20:21:37.612Z,9.00
2023-03-31T20:24:05.955Z,9.00
2023-03-31T20:26:36.403Z,9.00
2023-03-31T20:29:04.140Z,9.00
2023-03-31T20:31:36.602Z,9.00
2023-03-31T20:34:12.222Z,9.00
2023-03-31T20:36:41.076Z,9.00
2023-03-31T20:39:08.485Z,9.00
2023-03-31T20:41:39.568Z,9.00
2023-03-31T20:44:13.486Z,9.00
2023-03-31T20:46:43.827Z,9.00
2023-03-31T20:49:11.917Z,9.00
2023-03-31T20:51:39.196Z,9.00
2023-03-31T20:54:07.919Z,9.00
2023-03-31T20:56:41.433Z,8.90
2023-03-31T20:59:13.611Z,8.90
2023-03-31T21:01:42.507Z,8.90
2023-03-31T21:04:11.374Z,8.90
2023-03-31T21:06:42.883Z,9.00
2023-03-31T21:09:11.763Z,9.00
2023-03-31T21:11:40.762Z,9.00
2023-03-31T21:14:12.832Z,8.90
2023-03-31T21:16:40.307Z,8.90
2023-03-31T21:19:07.457Z,8.90
2023-03-31T21:21:36.015Z,9.00
2023-03-31T21:24:03.246Z,8.90
2023-03-31T21:26:30.368Z,8.90
2023-03-31T21:28:57.524Z,8.90
2023-03-31T21:31:26.158Z,8.90
2023-03-31T21:33:56.535Z,8.80
2023-03-31T21:36:24.879Z,8.80
2023-03-31T21:38:57.250Z,8.80
2023-03-31T21:41:30.703Z,8.80
2023-03-31T21:44:00.524Z,8.80
2023-03-31T21:46:32.760Z,8.80
2023-03-31T21:49:01.412Z,8.80
2023-03-31T21:51:28.902Z,8.80
2023-03-31T21:53:56.465Z,8.80
2023-03-31T21:56:25.678Z,8.70
2023-03-31T21:58:53.267Z,8.70
2023-03-31T22:01:21.593Z,8.80
2023-03-31T22:03:49.478Z,8.80
2023-03-31T22:06:16.899Z,8.80
2023-03-31T22:08:44.262Z,8.80
2023-03-31T22:11:13.180Z,8.80
2023-03-31T22:13:40.994Z,8.80
2023-03-31T22:16:18.452Z,8.80
2023-03-31T22:18:47.190Z,8.80
2023-03-31T22:21:22.109Z,8.80
2023-03-31T22:23:53.002Z,8.80
2023-03-31T22:26:21.766Z,8.80
2023-03-31T22:28:49.534Z,8.80
2023-03-31T22:31:16.682Z,8.80
2023-03-31T22:33:43.941Z,8.70
2023-03-31T22:36:11.142Z,8.70
2023-03-31T22:38:38.387Z,8.80
2023-03-31T22:41:05.742Z,8.80
2023-03-31T22:43:33.725Z,8.80
2023-03-31T22:46:06.944Z,8.80
2023-03-31T22:48:34.651Z,8.80
2023-03-31T22:51:06.029Z,8.80
2023-03-31T22:53:33.480Z,8.80
2023-03-31T22:56:10.624Z,8.80
2023-03-31T22:58:38.463Z,8.80
2023-03-31T23:01:07.176Z,8.70
2023-03-31T23:03:34.686Z,8.80
2023-03-31T23:06:06.301Z,8.80
2023-03-31T23:08:35.848Z,8.80
2023-03-31T23:11:06.602Z,8.80
2023-03-31T23:13:34.758Z,8.70
2023-03-31T23:16:12.428Z,8.70
2023-03-31T23:18:44.302Z,8.70
2023-03-31T23:21:12.542Z,8.70
2023-03-31T23:23:39.678Z,8.80
2023-03-31T23:26:07.157Z,8.80
2023-03-31T23:28:37.152Z,8.80
2023-03-31T23:31:05.570Z,8.70
2023-03-31T23:33:33.050Z,8.70
2023-03-31T23:36:03.279Z,8.80
2023-03-31T23:38:32.258Z,8.70
2023-03-31T23:41:00.645Z,8.70
2023-03-31T23:43:28.762Z,8.70
2023-03-31T23:45:56.455Z,8.70
2023-03-31T23:48:23.622Z,8.70
2023-03-31T23:50:51.055Z,8.70
2023-03-31T23:53:18.145Z,8.70
2023-03-31T23:55:58.437Z,8.70
2023-03-31T23:58:26.621Z,8.80
